Time,TemperatureF,DewpointF,PressureIn,WindDirection,WindDirectionDegrees,WindSpeedMPH,WindSpeedGustMPH,Humidity,HourlyPrecipIn,Conditions,Clouds,dailyrainin,SoftwareType,DateUTC
2013-05-11 03:50:00,59.5,54.7,29.86,North,356,0.0,0.0,84,0.00,,,0.00,Wunderground v.1.15,2013-05-11 07:50:00,
2013-05-11 03:55:00,59.4,54.2,29.86,North,357,0.0,0.0,83,0.00,,,0.00,Wunderground v.1.15,2013-05-11 07:55:00,
2013-05-11 04:00:00,59.4,54.2,29.86,North,357,0.0,0.0,83,0.00,,,0.00,Wunderground v.1.15,2013-05-11 08:00:00,
2013-05-11 04:10:00,59.1,54.3,29.86,North,356,0.0,0.0,84,0.00,,,0.00,Wunderground v.1.15,2013-05-11 08:10:00,
2013-05-11 04:15:00,58.7,53.9,29.86,North,357,0.0,0.0,84,0.00,,,0.00,Wunderground v.1.15,2013-05-11 08:15:00,
2013-05-11 04:20:00,58.4,53.6,29.87,North,356,0.0,0.0,84,0.00,,,0.00,Wunderground v.1.15,2013-05-11 08:20:00,
2013-05-11 04:25:00,58.2,53.7,29.87,North,356,0.0,0.0,85,0.00,,,0.00,Wunderground v.1.15,2013-05-11 08:25:00,
2013-05-11 04:30:00,58.1,54.2,29.87,North,357,0.0,0.0,87,0.00,,,0.00,Wunderground v.1.15,2013-05-11 08:30:00,
2013-05-11 04:35:00,58.0,54.2,29.86,North,356,0.0,2.0,87,0.00,,,0.00,Wunderground v.1.15,2013-05-11 08:35:00,
2013-05-11 04:40:00,57.9,54.1,29.86,North,356,0.0,2.0,87,0.00,,,0.00,Wunderground v.1.15,2013-05-11 08:40:00,
2013-05-11 04:45:00,57.9,54.1,29.86,North,357,0.0,2.0,87,0.00,,,0.00,Wunderground v.1.15,2013-05-11 08:45:00,
2013-05-11 04:50:00,58.0,54.2,29.85,NNE,23,0.0,2.0,87,0.00,,,0.00,Wunderground v.1.15,2013-05-11 08:50:00,
2013-05-11 04:55:00,58.0,53.8,29.85,NNE,27,0.0,2.0,86,0.00,,,0.00,Wunderground v.1.15,2013-05-11 08:55:00,
2013-05-11 05:00:00,57.9,53.7,29.85,NNE,27,0.0,2.0,86,0.00,,,0.00,Wunderground v.1.15,2013-05-11 09:00:00,
2013-05-11 05:05:00,58.0,53.5,29.85,North,350,0.0,2.0,85,0.00,,,0.00,Wunderground v.1.15,2013-05-11 09:05:00,
2013-05-11 05:15:00,58.3,53.2,29.85,North,351,0.0,2.0,83,0.00,,,0.00,Wunderground v.1.15,2013-05-11 09:15:00,
2013-05-11 05:20:00,58.3,53.5,29.85,NNE,13,0.0,2.0,84,0.00,,,0.00,Wunderground v.1.15,2013-05-11 09:20:00,
2013-05-11 05:25:00,58.3,53.5,29.85,NNE,12,1.0,2.0,84,0.00,,,0.00,Wunderground v.1.15,2013-05-11 09:25:00,
2013-05-11 05:30:00,58.4,53.3,29.85,WNW,300,1.0,1.0,83,0.00,,,0.00,Wunderground v.1.15,2013-05-11 09:30:00,
2013-05-11 05:40:00,58.7,53.2,29.85,NNW,338,1.0,1.0,82,0.00,,,0.00,Wunderground v.1.15,2013-05-11 09:40:00,
2013-05-11 05:45:00,58.8,53.0,29.86,NNW,338,0.0,2.0,81,0.00,,,0.00,Wunderground v.1.15,2013-05-11 09:45:00,
2013-05-11 05:50:00,58.9,53.1,29.86,SW,221,0.0,2.0,81,0.00,,,0.00,Wunderground v.1.15,2013-05-11 09:50:00,
2013-05-11 05:55:00,58.9,52.7,29.86,NW,318,0.0,2.0,80,0.00,,,0.00,Wunderground v.1.15,2013-05-11 09:55:00,
2013-05-11 06:00:00,59.0,52.8,29.86,NNE,25,0.0,2.0,80,0.00,,,0.00,Wunderground v.1.15,2013-05-11 10:00:00,
2013-05-11 06:05:00,59.1,52.9,29.86,North,6,0.0,2.0,80,0.00,,,0.00,Wunderground v.1.15,2013-05-11 10:05:00,
2013-05-11 06:10:00,59.1,52.9,29.86,ENE,78,0.0,2.0,80,0.00,,,0.00,Wunderground v.1.15,2013-05-11 10:10:00,
2013-05-11 06:15:00,59.0,52.8,29.85,NNE,18,0.0,2.0,80,0.00,,,0.00,Wunderground v.1.15,2013-05-11 10:15:00,
2013-05-11 06:20:00,58.9,53.1,29.85,NNW,332,0.0,2.0,81,0.00,,,0.00,Wunderground v.1.15,2013-05-11 10:20:00,
2013-05-11 06:25:00,58.7,53.2,29.85,NNW,329,0.0,2.0,82,0.00,,,0.00,Wunderground v.1.15,2013-05-11 10:25:00,
2013-05-11 06:30:00,58.5,53.0,29.86,NNW,329,0.0,2.0,82,0.00,,,0.00,Wunderground v.1.15,2013-05-11 10:30:00,
2013-05-11 06:35:00,58.2,53.1,29.86,NNW,329,0.0,2.0,83,0.00,,,0.00,Wunderground v.1.15,2013-05-11 10:35:00,
2013-05-11 06:40:00,58.1,53.0,29.86,NNW,330,0.0,2.0,83,0.00,,,0.00,Wunderground v.1.15,2013-05-11 10:40:00,
2013-05-11 06:45:00,58.1,53.0,29.86,NNW,342,0.0,2.0,83,0.00,,,0.00,Wunderground v.1.15,2013-05-11 10:45:00,
2013-05-11 06:50:00,58.2,53.1,29.85,North,5,1.0,2.0,83,0.00,,,0.00,Wunderground v.1.15,2013-05-11 10:50:00,
2013-05-11 06:55:00,58.2,53.4,29.86,NW,312,1.0,2.0,84,0.00,,,0.00,Wunderground v.1.15,2013-05-11 10:55:00,
2013-05-11 07:05:00,58.3,53.2,29.85,NNW,334,0.0,2.0,83,0.00,,,0.00,Wunderground v.1.15,2013-05-11 11:05:00,
2013-05-11 07:10:00,58.4,53.6,29.85,NNW,333,0.0,2.0,84,0.00,,,0.00,Wunderground v.1.15,2013-05-11 11:10:00,
2013-05-11 07:15:00,58.5,53.7,29.85,NW,321,0.0,2.0,84,0.00,,,0.00,Wunderground v.1.15,2013-05-11 11:15:00,
2013-05-11 07:20:00,58.5,54.0,29.85,NW,321,0.0,2.0,85,0.00,,,0.00,Wunderground v.1.15,2013-05-11 11:20:00,
2013-05-11 07:25:00,58.6,54.1,29.85,WNW,285,0.0,2.0,85,0.00,,,0.00,Wunderground v.1.15,2013-05-11 11:25:00,
2013-05-11 07:30:00,58.8,54.3,29.85,WNW,285,0.0,2.0,85,0.00,,,0.00,Wunderground v.1.15,2013-05-11 11:30:00,
2013-05-11 07:35:00,59.0,54.5,29.85,WSW,249,0.0,2.0,85,0.00,,,0.00,Wunderground v.1.15,2013-05-11 11:35:00,
2013-05-11 07:40:00,59.1,54.3,29.85,WSW,256,0.0,2.0,84,0.00,,,0.00,Wunderground v.1.15,2013-05-11 11:40:00,
2013-05-11 07:45:00,59.4,54.6,29.85,WSW,242,0.0,2.0,84,0.00,,,0.00,Wunderground v.1.15,2013-05-11 11:45:00,
2013-05-11 07:50:00,59.7,55.2,29.85,WSW,242,0.0,2.0,85,0.00,,,0.00,Wunderground v.1.15,2013-05-11 11:50:00,
2013-05-11 07:55:00,60.0,55.2,29.86,WSW,246,0.0,2.0,84,0.00,,,0.00,Wunderground v.1.15,2013-05-11 11:55:00,
2013-05-11 08:05:00,60.3,55.1,29.86,WSW,239,0.0,2.0,83,0.00,,,0.00,Wunderground v.1.15,2013-05-11 12:05:00,
2013-05-11 08:10:00,60.4,54.2,29.86,NNW,338,0.0,2.0,80,0.00,,,0.00,Wunderground v.1.15,2013-05-11 12:10:00,
2013-05-11 08:15:00,60.8,54.6,29.86,East,84,0.0,2.0,80,0.00,,,0.00,Wunderground v.1.15,2013-05-11 12:15:00,
2013-05-11 08:20:00,60.9,54.7,29.86,East,83,0.0,2.0,80,0.00,,,0.00,Wunderground v.1.15,2013-05-11 12:20:00,
2013-05-11 08:25:00,61.2,55.3,29.86,East,83,0.0,2.0,81,0.00,,,0.00,Wunderground v.1.15,2013-05-11 12:25:00,
2013-05-11 08:30:00,61.5,55.6,29.86,East,86,0.0,2.0,81,0.00,,,0.00,Wunderground v.1.15,2013-05-11 12:30:00,
2013-05-11 08:35:00,61.8,55.2,29.86,East,85,0.0,2.0,79,0.00,,,0.00,Wunderground v.1.15,2013-05-11 12:35:00,
2013-05-11 08:40:00,62.0,54.7,29.86,East,89,1.0,2.0,77,0.00,,,0.00,Wunderground v.1.15,2013-05-11 12:40:00,
2013-05-11 08:45:00,62.1,55.2,29.86,East,86,1.0,2.0,78,0.00,,,0.00,Wunderground v.1.15,2013-05-11 12:45:00,
2013-05-11 08:50:00,62.3,55.7,29.86,East,89,1.0,2.0,79,0.00,,,0.00,Wunderground v.1.15,2013-05-11 12:50:00,
2013-05-11 09:00:00,62.7,55.7,29.86,SSE,156,0.0,2.0,78,0.00,,,0.00,Wunderground v.1.15,2013-05-11 13:00:00,
2013-05-11 09:10:00,62.8,56.5,29.86,ESE,110,0.0,2.0,80,0.00,,,0.00,Wunderground v.1.15,2013-05-11 13:10:00,
2013-05-11 09:15:00,63.0,56.4,29.86,East,89,1.0,2.0,79,0.00,,,0.00,Wunderground v.1.15,2013-05-11 13:15:00,
2013-05-11 09:20:00,63.8,56.8,29.85,ESE,118,0.0,2.0,78,0.00,,,0.00,Wunderground v.1.15,2013-05-11 13:20:00,
2013-05-11 09:25:00,64.6,56.9,29.85,SE,141,0.0,2.0,76,0.00,,,0.00,Wunderground v.1.15,2013-05-11 13:25:00,
2013-05-11 09:30:00,65.1,56.6,29.85,North,5,1.0,1.0,74,0.00,,,0.00,Wunderground v.1.15,2013-05-11 13:30:00,
2013-05-11 09:35:00,65.5,57.0,29.86,East,94,1.0,2.0,74,0.00,,,0.00,Wunderground v.1.15,2013-05-11 13:35:00,
2013-05-11 09:40:00,65.8,56.9,29.86,SE,139,1.0,2.0,73,0.00,,,0.00,Wunderground v.1.15,2013-05-11 13:40:00,
2013-05-11 09:45:00,66.4,56.7,29.86,NNE,26,2.0,3.0,71,0.00,,,0.00,Wunderground v.1.15,2013-05-11 13:45:00,
2013-05-11 09:50:00,66.4,56.3,29.86,SW,226,1.0,2.0,70,0.00,,,0.00,Wunderground v.1.15,2013-05-11 13:50:00,
2013-05-11 09:55:00,65.9,56.6,29.85,ESE,104,1.0,2.0,72,0.00,,,0.00,Wunderground v.1.15,2013-05-11 13:55:00,
2013-05-11 10:00:00,65.7,56.0,29.86,ESE,114,1.0,2.0,71,0.00,,,0.00,Wunderground v.1.15,2013-05-11 14:00:00,
2013-05-11 10:10:00,66.6,57.3,29.86,WNW,291,1.0,2.0,72,0.00,,,0.00,Wunderground v.1.15,2013-05-11 14:10:00,
2013-05-11 10:15:00,66.0,56.7,29.85,South,181,1.0,2.0,72,0.00,,,0.00,Wunderground v.1.15,2013-05-11 14:15:00,
2013-05-11 10:20:00,65.7,56.4,29.86,ESE,119,1.0,1.0,72,0.00,,,0.00,Wunderground v.1.15,2013-05-11 14:20:00,
2013-05-11 10:25:00,65.6,57.1,29.86,East,94,1.0,2.0,74,0.00,,,0.00,Wunderground v.1.15,2013-05-11 14:25:00,
2013-05-11 10:30:00,65.8,57.3,29.86,ESE,118,1.0,2.0,74,0.00,,,0.00,Wunderground v.1.15,2013-05-11 14:30:00,
2013-05-11 10:35:00,65.8,57.7,29.86,ESE,113,1.0,2.0,75,0.00,,,0.00,Wunderground v.1.15,2013-05-11 14:35:00,
2013-05-11 10:40:00,65.9,57.4,29.86,SE,141,1.0,1.0,74,0.00,,,0.00,Wunderground v.1.15,2013-05-11 14:40:00,
2013-05-11 10:50:00,66.2,56.9,29.85,South,186,0.0,2.0,72,0.00,,,0.00,Wunderground v.1.15,2013-05-11 14:50:00,
2013-05-11 10:55:00,66.4,57.5,29.85,NNE,32,1.0,2.0,73,0.00,,,0.00,Wunderground v.1.15,2013-05-11 14:55:00,
2013-05-11 11:00:00,66.7,57.8,29.85,NE,53,1.0,1.0,73,0.00,,,0.00,Wunderground v.1.15,2013-05-11 15:00:00,
2013-05-11 11:05:00,66.7,57.8,29.85,SSE,156,0.0,2.0,73,0.00,,,0.00,Wunderground v.1.15,2013-05-11 15:05:00,
2013-05-11 11:10:00,66.4,56.7,29.85,SE,141,1.0,1.0,71,0.00,,,0.00,Wunderground v.1.15,2013-05-11 15:10:00,
2013-05-11 11:15:00,66.2,57.3,29.85,ESE,116,0.0,2.0,73,0.00,,,0.00,Wunderground v.1.15,2013-05-11 15:15:00,
2013-05-11 11:20:00,65.8,57.7,29.85,NNW,343,0.0,2.0,75,0.00,,,0.00,Wunderground v.1.15,2013-05-11 15:20:00,
2013-05-11 11:25:00,65.7,57.2,29.85,ENE,60,0.0,2.0,74,0.00,,,0.00,Wunderground v.1.15,2013-05-11 15:25:00,
2013-05-11 11:30:00,65.7,57.6,29.84,East,85,1.0,1.0,75,0.00,,,0.00,Wunderground v.1.15,2013-05-11 15:30:00,
2013-05-11 11:35:00,65.7,56.8,29.85,ESE,112,0.0,2.0,73,0.00,,,0.00,Wunderground v.1.15,2013-05-11 15:35:00,
2013-05-11 11:40:00,65.9,57.4,29.84,SE,127,0.0,2.0,74,0.00,,,0.00,Wunderground v.1.15,2013-05-11 15:40:00,
2013-05-11 11:45:00,66.2,57.7,29.84,East,97,1.0,2.0,74,0.00,,,0.00,Wunderground v.1.15,2013-05-11 15:45:00,
2013-05-11 11:50:00,66.9,57.6,29.84,SSE,163,1.0,2.0,72,0.00,,,0.00,Wunderground v.1.15,2013-05-11 15:50:00,
2013-05-11 11:55:00,66.9,57.6,29.84,East,97,1.0,2.0,72,0.00,,,0.00,Wunderground v.1.15,2013-05-11 15:55:00,
2013-05-11 12:00:00,67.3,58.0,29.85,ESE,116,1.0,1.0,72,0.00,,,0.00,Wunderground v.1.15,2013-05-11 16:00:00,
2013-05-11 12:05:00,67.6,58.2,29.85,East,89,1.0,2.0,72,0.00,,,0.00,Wunderground v.1.15,2013-05-11 16:05:00,
2013-05-11 12:10:00,67.5,57.8,29.84,East,82,1.0,2.0,71,0.00,,,0.00,Wunderground v.1.15,2013-05-11 16:10:00,
2013-05-11 12:15:00,67.5,57.8,29.84,SW,229,0.0,2.0,71,0.00,,,0.00,Wunderground v.1.15,2013-05-11 16:15:00,
2013-05-11 12:20:00,67.3,58.3,29.84,SE,132,0.0,2.0,73,0.00,,,0.00,Wunderground v.1.15,2013-05-11 16:20:00,
2013-05-11 12:30:00,66.8,57.5,29.84,WSW,249,0.0,2.0,72,0.00,,,0.00,Wunderground v.1.15,2013-05-11 16:30:00,
2013-05-11 12:35:00,67.3,57.6,29.84,SE,146,0.0,2.0,71,0.00,,,0.00,Wunderground v.1.15,2013-05-11 16:35:00,
2013-05-11 12:40:00,67.8,58.4,29.84,SW,225,0.0,2.0,72,0.00,,,0.00,Wunderground v.1.15,2013-05-11 16:40:00,
2013-05-11 12:45:00,68.0,57.4,29.84,SSE,160,1.0,2.0,69,0.00,,,0.00,Wunderground v.1.15,2013-05-11 16:45:00,
2013-05-11 12:55:00,68.5,57.5,29.85,SE,129,0.0,2.0,68,0.00,,,0.00,Wunderground v.1.15,2013-05-11 16:55:00,
2013-05-11 13:00:00,68.6,56.8,29.84,ESE,110,1.0,2.0,66,0.00,,,0.00,Wunderground v.1.15,2013-05-11 17:00:00,
2013-05-11 13:05:00,68.7,57.7,29.84,SSE,160,2.0,2.0,68,0.00,,,0.00,Wunderground v.1.15,2013-05-11 17:05:00,
2013-05-11 13:10:00,69.1,57.3,29.84,ESE,117,1.0,1.0,66,0.00,,,0.00,Wunderground v.1.15,2013-05-11 17:10:00,
2013-05-11 13:15:00,69.0,57.6,29.83,South,177,1.0,2.0,67,0.00,,,0.00,Wunderground v.1.15,2013-05-11 17:15:00,
2013-05-11 13:20:00,68.9,57.5,29.83,South,179,1.0,1.0,67,0.00,,,0.00,Wunderground v.1.15,2013-05-11 17:20:00,
2013-05-11 13:25:00,68.6,57.6,29.83,SSE,160,1.0,2.0,68,0.00,,,0.00,Wunderground v.1.15,2013-05-11 17:25:00,
2013-05-11 13:30:00,68.5,58.3,29.83,SE,127,0.0,2.0,70,0.00,,,0.00,Wunderground v.1.15,2013-05-11 17:30:00,
2013-05-11 13:35:00,68.3,58.9,29.83,SE,132,0.0,2.0,72,0.00,,,0.00,Wunderground v.1.15,2013-05-11 17:35:00,
2013-05-11 13:40:00,68.2,58.0,29.83,SE,131,0.0,3.0,70,0.00,,,0.00,Wunderground v.1.15,2013-05-11 17:40:00,
2013-05-11 13:45:00,67.8,57.7,29.83,East,82,2.0,4.0,70,0.00,,,0.00,Wunderground v.1.15,2013-05-11 17:45:00,
2013-05-11 13:50:00,67.7,58.3,29.83,SSW,213,2.0,3.0,72,0.00,,,0.00,Wunderground v.1.15,2013-05-11 17:50:00,
2013-05-11 13:55:00,67.8,58.1,29.83,SSE,162,2.0,3.0,71,0.00,,,0.00,Wunderground v.1.15,2013-05-11 17:55:00,
2013-05-11 14:05:00,68.3,58.1,29.82,East,86,2.0,2.0,70,0.00,,,0.00,Wunderground v.1.15,2013-05-11 18:05:00,
2013-05-11 14:10:00,68.9,58.3,29.82,West,277,1.0,2.0,69,0.00,,,0.00,Wunderground v.1.15,2013-05-11 18:10:00,
2013-05-11 14:15:00,69.3,57.9,29.83,SSW,202,1.0,2.0,67,0.00,,,0.00,Wunderground v.1.15,2013-05-11 18:15:00,
2013-05-11 14:20:00,69.4,58.8,29.82,NNE,22,1.0,3.0,69,0.00,,,0.00,Wunderground v.1.15,2013-05-11 18:20:00,
2013-05-11 14:25:00,69.6,57.3,29.81,North,6,1.0,3.0,65,0.00,,,0.00,Wunderground v.1.15,2013-05-11 18:25:00,
2013-05-11 14:30:00,70.0,57.3,29.81,SE,141,1.0,4.0,64,0.00,,,0.00,Wunderground v.1.15,2013-05-11 18:30:00,
2013-05-11 14:35:00,69.8,57.5,29.80,ESE,116,2.0,4.0,65,0.00,,,0.00,Wunderground v.1.15,2013-05-11 18:35:00,
2013-05-11 14:40:00,70.1,57.4,29.80,SSE,166,2.0,2.0,64,0.00,,,0.00,Wunderground v.1.15,2013-05-11 18:40:00,
2013-05-11 14:45:00,70.6,56.5,29.80,ENE,63,1.0,2.0,61,0.00,,,0.00,Wunderground v.1.15,2013-05-11 18:45:00,
2013-05-11 14:50:00,70.5,56.9,29.80,ESE,102,2.0,2.0,62,0.00,,,0.00,Wunderground v.1.15,2013-05-11 18:50:00,
2013-05-11 14:55:00,71.3,56.7,29.80,West,260,2.0,2.0,60,0.00,,,0.00,Wunderground v.1.15,2013-05-11 18:55:00,
2013-05-11 15:00:00,71.7,58.4,29.80,NE,44,1.0,1.0,63,0.00,,,0.00,Wunderground v.1.15,2013-05-11 19:00:00,
2013-05-11 15:05:00,71.6,57.4,29.80,SE,125,2.0,6.0,61,0.00,,,0.00,Wunderground v.1.15,2013-05-11 19:05:00,
2013-05-11 15:10:00,71.2,57.5,29.80,SW,218,2.0,2.0,62,0.00,,,0.00,Wunderground v.1.15,2013-05-11 19:10:00,
2013-05-11 15:15:00,70.7,56.1,29.80,ESE,102,2.0,2.0,60,0.00,,,0.00,Wunderground v.1.15,2013-05-11 19:15:00,
2013-05-11 15:20:00,71.3,57.6,29.80,SSE,156,2.0,4.0,62,0.00,,,0.00,Wunderground v.1.15,2013-05-11 19:20:00,
2013-05-11 15:25:00,71.5,58.2,29.80,WSW,241,1.0,4.0,63,0.00,,,0.00,Wunderground v.1.15,2013-05-11 19:25:00,
2013-05-11 15:30:00,70.8,58.4,29.80,ESE,118,2.0,2.0,65,0.00,,,0.00,Wunderground v.1.15,2013-05-11 19:30:00,
2013-05-11 15:35:00,70.8,58.4,29.80,WSW,246,1.0,2.0,65,0.00,,,0.00,Wunderground v.1.15,2013-05-11 19:35:00,
2013-05-11 15:40:00,71.0,59.1,29.79,ESE,113,1.0,2.0,66,0.00,,,0.00,Wunderground v.1.15,2013-05-11 19:40:00,
2013-05-11 15:45:00,70.9,59.0,29.79,East,101,1.0,2.0,66,0.00,,,0.00,Wunderground v.1.15,2013-05-11 19:45:00,
2013-05-11 15:50:00,71.1,59.2,29.78,ESE,119,2.0,2.0,66,0.00,,,0.00,Wunderground v.1.15,2013-05-11 19:50:00,
2013-05-11 15:55:00,71.4,59.0,29.78,West,273,1.0,2.0,65,0.00,,,0.00,Wunderground v.1.15,2013-05-11 19:55:00,
2013-05-11 16:00:00,71.8,59.0,29.78,East,99,1.0,1.0,64,0.00,,,0.00,Wunderground v.1.15,2013-05-11 20:00:00,
2013-05-11 16:10:00,73.2,58.9,29.78,SW,218,1.0,1.0,61,0.00,,,0.00,Wunderground v.1.15,2013-05-11 20:10:00,
2013-05-11 16:15:00,73.3,58.6,29.77,West,267,2.0,2.0,60,0.00,,,0.00,Wunderground v.1.15,2013-05-11 20:15:00,
2013-05-11 16:20:00,73.3,57.6,29.77,ESE,107,1.0,2.0,58,0.00,,,0.00,Wunderground v.1.15,2013-05-11 20:20:00,
2013-05-11 16:25:00,72.9,56.8,29.78,ESE,108,1.0,2.0,57,0.00,,,0.00,Wunderground v.1.15,2013-05-11 20:25:00,
2013-05-11 16:30:00,72.1,57.4,29.78,East,82,2.0,4.0,60,0.00,,,0.00,Wunderground v.1.15,2013-05-11 20:30:00,
2013-05-11 16:35:00,71.6,57.9,29.78,SE,131,3.0,4.0,62,0.00,,,0.00,Wunderground v.1.15,2013-05-11 20:35:00,
2013-05-11 16:40:00,71.0,58.2,29.77,West,274,2.0,3.0,64,0.00,,,0.00,Wunderground v.1.15,2013-05-11 20:40:00,
2013-05-11 16:45:00,70.5,58.6,29.78,SW,235,2.0,3.0,66,0.00,,,0.00,Wunderground v.1.15,2013-05-11 20:45:00,
2013-05-11 16:50:00,69.9,58.9,29.77,SSE,150,2.0,5.0,68,0.00,,,0.00,Wunderground v.1.15,2013-05-11 20:50:00,
2013-05-11 16:55:00,69.2,59.0,29.77,East,82,3.0,5.0,70,0.00,,,0.00,Wunderground v.1.15,2013-05-11 20:55:00,
2013-05-11 17:00:00,68.8,58.6,29.77,ENE,72,3.0,3.0,70,0.00,,,0.00,Wunderground v.1.15,2013-05-11 21:00:00,
2013-05-11 17:10:00,68.6,58.8,29.77,WNW,291,1.0,2.0,71,0.00,,,0.00,Wunderground v.1.15,2013-05-11 21:10:00,
2013-05-11 17:15:00,68.5,58.7,29.77,WSW,238,1.0,2.0,71,0.00,,,0.00,Wunderground v.1.15,2013-05-11 21:15:00,
2013-05-11 17:20:00,67.8,58.4,29.76,WSW,239,1.0,2.0,72,0.00,,,0.00,Wunderground v.1.15,2013-05-11 21:20:00,
2013-05-11 17:25:00,66.8,58.2,29.77,SSW,200,2.0,2.0,74,0.00,,,0.00,Wunderground v.1.15,2013-05-11 21:25:00,
2013-05-11 17:30:00,66.1,57.9,29.76,ESE,121,2.0,2.0,75,0.00,,,0.00,Wunderground v.1.15,2013-05-11 21:30:00,
2013-05-11 17:35:00,65.3,57.9,29.77,WSW,251,1.0,2.0,77,0.00,,,0.00,Wunderground v.1.15,2013-05-11 21:35:00,
2013-05-11 17:40:00,64.8,57.8,29.77,WSW,249,1.0,1.0,78,0.00,,,0.00,Wunderground v.1.15,2013-05-11 21:40:00,
2013-05-11 17:45:00,64.3,57.3,29.77,South,188,1.0,2.0,78,0.00,,,0.00,Wunderground v.1.15,2013-05-11 21:45:00,
2013-05-11 17:50:00,63.9,57.3,29.78,WSW,250,1.0,2.0,79,0.00,,,0.00,Wunderground v.1.15,2013-05-11 21:50:00,
2013-05-11 17:55:00,63.5,57.6,29.78,SSW,211,1.0,2.0,81,0.00,,,0.00,Wunderground v.1.15,2013-05-11 21:55:00,
2013-05-11 18:00:00,63.1,58.2,29.79,WSW,253,1.0,1.0,84,0.00,,,0.00,Wunderground v.1.15,2013-05-11 22:00:00,
2013-05-11 18:10:00,61.6,57.4,29.79,West,273,1.0,1.0,86,0.00,,,0.00,Wunderground v.1.15,2013-05-11 22:10:00,
2013-05-11 18:15:00,61.4,57.5,29.79,West,273,0.0,2.0,87,0.00,,,0.00,Wunderground v.1.15,2013-05-11 22:15:00,
2013-05-11 18:20:00,61.1,57.2,29.79,West,273,0.0,2.0,87,0.00,,,0.00,Wunderground v.1.15,2013-05-11 22:20:00,
2013-05-11 18:25:00,60.9,57.3,29.79,West,273,0.0,2.0,88,0.00,,,0.00,Wunderground v.1.15,2013-05-11 22:25:00,
2013-05-11 18:30:00,60.8,57.2,29.79,West,272,0.0,2.0,88,0.00,,,0.00,Wunderground v.1.15,2013-05-11 22:30:00,
2013-05-11 18:35:00,60.6,57.3,29.79,West,270,1.0,2.0,89,0.00,,,0.00,Wunderground v.1.15,2013-05-11 22:35:00,
2013-05-11 18:40:00,60.5,57.2,29.79,WSW,250,1.0,2.0,89,0.00,,,0.01,Wunderground v.1.15,2013-05-11 22:40:00,
2013-05-11 18:45:00,60.5,57.6,29.78,WSW,250,1.0,2.0,90,0.00,,,0.01,Wunderground v.1.15,2013-05-11 22:45:00,
2013-05-11 18:50:00,60.4,57.5,29.78,WSW,250,0.0,2.0,90,0.00,,,0.01,Wunderground v.1.15,2013-05-11 22:50:00,
2013-05-11 19:00:00,60.3,57.7,29.78,WSW,250,0.0,2.0,91,0.00,,,0.01,Wunderground v.1.15,2013-05-11 23:00:00,
2013-05-11 19:05:00,60.3,58.0,29.78,WSW,250,0.0,2.0,92,0.00,,,0.01,Wunderground v.1.15,2013-05-11 23:05:00,
2013-05-11 19:15:00,60.2,57.9,29.79,WSW,252,0.0,2.0,92,0.00,,,0.01,Wunderground v.1.15,2013-05-11 23:15:00,
2013-05-11 19:20:00,60.2,57.9,29.79,WSW,256,0.0,2.0,92,0.00,,,0.01,Wunderground v.1.15,2013-05-11 23:20:00,
2013-05-11 19:25:00,60.2,57.9,29.79,WSW,255,0.0,2.0,92,0.00,,,0.01,Wunderground v.1.15,2013-05-11 23:25:00,
2013-05-11 19:30:00,60.2,57.9,29.79,WSW,255,0.0,2.0,92,0.00,,,0.01,Wunderground v.1.15,2013-05-11 23:30:00,
2013-05-11 19:35:00,60.2,57.9,29.79,WSW,255,0.0,2.0,92,0.00,,,0.01,Wunderground v.1.15,2013-05-11 23:35:00,
2013-05-11 19:40:00,60.2,57.9,29.79,WSW,255,0.0,2.0,92,0.00,,,0.01,Wunderground v.1.15,2013-05-11 23:40:00,
2013-05-11 19:45:00,60.2,58.2,29.80,WSW,256,0.0,2.0,93,0.00,,,0.02,Wunderground v.1.15,2013-05-11 23:45:00,
2013-05-11 19:50:00,60.1,58.1,29.80,WSW,256,0.0,2.0,93,0.00,,,0.02,Wunderground v.1.15,2013-05-11 23:50:00,
2013-05-11 19:55:00,60.0,58.0,29.80,SE,125,0.0,2.0,93,0.08,,,0.03,Wunderground v.1.15,2013-05-11 23:55:00,
2013-05-11 20:00:00,59.9,57.9,29.80,West,278,0.0,2.0,93,0.08,,,0.03,Wunderground v.1.15,2013-05-12 00:00:00,
2013-05-11 20:05:00,59.9,57.9,29.80,NNE,32,0.0,2.0,93,0.08,,,0.04,Wunderground v.1.15,2013-05-12 00:05:00,
2013-05-11 20:10:00,59.7,57.7,29.80,NE,35,0.0,2.0,93,0.06,,,0.04,Wunderground v.1.15,2013-05-12 00:10:00,
2013-05-11 20:15:00,59.6,57.6,29.80,North,351,0.0,2.0,93,0.04,,,0.04,Wunderground v.1.15,2013-05-12 00:15:00,
2013-05-11 20:20:00,59.4,57.7,29.80,NNW,341,0.0,2.0,94,0.00,,,0.04,Wunderground v.1.15,2013-05-12 00:20:00,
2013-05-11 20:25:00,59.3,57.6,29.80,NNW,333,0.0,2.0,94,0.00,,,0.04,Wunderground v.1.15,2013-05-12 00:25:00,
2013-05-11 20:30:00,59.3,57.6,29.80,North,1,0.0,2.0,94,0.00,,,0.05,Wunderground v.1.15,2013-05-12 00:30:00,
2013-05-11 20:35:00,59.3,57.6,29.79,NW,311,0.0,2.0,94,0.00,,,0.05,Wunderground v.1.15,2013-05-12 00:35:00,
2013-05-11 20:45:00,59.0,57.3,29.79,North,359,0.0,2.0,94,0.00,,,0.05,Wunderground v.1.15,2013-05-12 00:45:00,
2013-05-11 20:50:00,58.9,57.2,29.80,North,359,0.0,2.0,94,0.00,,,0.05,Wunderground v.1.15,2013-05-12 00:50:00,
2013-05-11 20:55:00,58.8,57.1,29.80,North,359,0.0,2.0,94,0.00,,,0.05,Wunderground v.1.15,2013-05-12 00:55:00,
2013-05-11 21:05:00,58.6,56.9,29.80,North,1,0.0,2.0,94,0.00,,,0.05,Wunderground v.1.15,2013-05-12 01:05:00,
2013-05-11 21:10:00,58.5,56.8,29.80,NNW,342,0.0,2.0,94,0.00,,,0.05,Wunderground v.1.15,2013-05-12 01:10:00,
2013-05-11 21:15:00,58.4,56.7,29.80,NW,320,0.0,2.0,94,0.00,,,0.05,Wunderground v.1.15,2013-05-12 01:15:00,
2013-05-11 21:20:00,58.3,56.6,29.79,NW,311,0.0,2.0,94,0.00,,,0.05,Wunderground v.1.15,2013-05-12 01:20:00,
2013-05-11 21:25:00,58.2,56.5,29.80,West,280,0.0,2.0,94,0.00,,,0.05,Wunderground v.1.15,2013-05-12 01:25:00,
2013-05-11 21:30:00,58.2,56.5,29.80,SE,124,0.0,2.0,94,0.00,,,0.05,Wunderground v.1.15,2013-05-12 01:30:00,
2013-05-11 21:35:00,58.2,56.5,29.81,WNW,287,0.0,2.0,94,0.00,,,0.05,Wunderground v.1.15,2013-05-12 01:35:00,
2013-05-11 21:40:00,58.1,56.1,29.80,WNW,295,1.0,1.0,93,0.00,,,0.05,Wunderground v.1.15,2013-05-12 01:40:00,
2013-05-11 21:45:00,58.2,56.5,29.80,WNW,295,0.0,2.0,94,0.00,,,0.05,Wunderground v.1.15,2013-05-12 01:45:00,
2013-05-11 21:50:00,58.1,56.1,29.80,ESE,107,0.0,2.0,93,0.00,,,0.05,Wunderground v.1.15,2013-05-12 01:50:00,
2013-05-11 21:55:00,58.1,56.4,29.80,WSW,242,0.0,2.0,94,0.00,,,0.05,Wunderground v.1.15,2013-05-12 01:55:00,
2013-05-11 22:00:00,58.1,56.4,29.80,WSW,246,0.0,2.0,94,0.00,,,0.05,Wunderground v.1.15,2013-05-12 02:00:00,
2013-05-11 22:10:00,57.9,56.2,29.80,West,263,0.0,2.0,94,0.00,,,0.05,Wunderground v.1.15,2013-05-12 02:10:00,
2013-05-11 22:15:00,57.9,56.5,29.80,WSW,255,0.0,2.0,95,0.00,,,0.05,Wunderground v.1.15,2013-05-12 02:15:00,
2013-05-11 22:20:00,58.2,56.8,29.81,WSW,238,0.0,2.0,95,0.00,,,0.05,Wunderground v.1.15,2013-05-12 02:20:00,
2013-05-11 22:25:00,58.2,56.8,29.82,SW,229,1.0,2.0,95,0.00,,,0.05,Wunderground v.1.15,2013-05-12 02:25:00,
2013-05-11 22:30:00,57.8,56.1,29.81,WSW,242,1.0,2.0,94,0.00,,,0.05,Wunderground v.1.15,2013-05-12 02:30:00,
2013-05-11 22:35:00,57.4,55.7,29.82,West,263,1.0,2.0,94,0.00,,,0.05,Wunderground v.1.15,2013-05-12 02:35:00,
2013-05-11 22:45:00,57.0,55.3,29.83,SSW,195,0.0,2.0,94,0.00,,,0.05,Wunderground v.1.15,2013-05-12 02:45:00,
2013-05-11 22:50:00,56.9,55.2,29.83,SSW,198,0.0,2.0,94,0.00,,,0.05,Wunderground v.1.15,2013-05-12 02:50:00,
2013-05-11 22:55:00,56.7,55.0,29.83,SE,130,0.0,2.0,94,0.00,,,0.05,Wunderground v.1.15,2013-05-12 02:55:00,
2013-05-11 23:00:00,56.5,54.8,29.84,SE,131,0.0,2.0,94,0.00,,,0.05,Wunderground v.1.15,2013-05-12 03:00:00,
2013-05-11 23:05:00,56.3,54.6,29.83,SE,142,0.0,2.0,94,0.00,,,0.05,Wunderground v.1.15,2013-05-12 03:05:00,
2013-05-11 23:10:00,56.0,54.3,29.83,SE,141,0.0,2.0,94,0.00,,,0.05,Wunderground v.1.15,2013-05-12 03:10:00,
2013-05-11 23:15:00,55.8,54.1,29.83,SSE,166,0.0,2.0,94,0.00,,,0.05,Wunderground v.1.15,2013-05-12 03:15:00,
2013-05-11 23:25:00,55.5,53.8,29.83,WSW,246,0.0,2.0,94,0.00,,,0.05,Wunderground v.1.15,2013-05-12 03:25:00,
2013-05-11 23:30:00,55.2,53.2,29.83,WSW,239,0.0,2.0,93,0.00,,,0.05,Wunderground v.1.15,2013-05-12 03:30:00,
2013-05-11 23:35:00,55.0,53.0,29.83,SSW,203,0.0,2.0,93,0.00,,,0.05,Wunderground v.1.15,2013-05-12 03:35:00,
2013-05-11 23:40:00,54.9,52.6,29.83,SW,232,0.0,2.0,92,0.00,,,0.05,Wunderground v.1.15,2013-05-12 03:40:00,
2013-05-11 23:45:00,54.7,52.4,29.83,WSW,249,1.0,2.0,92,0.00,,,0.05,Wunderground v.1.15,2013-05-12 03:45:00,
2013-05-11 23:50:00,54.4,51.8,29.83,WSW,245,1.0,1.0,91,0.00,,,0.05,Wunderground v.1.15,2013-05-12 03:50:00,
2013-05-11 23:55:00,54.3,51.7,29.83,SW,232,0.0,2.0,91,0.00,,,0.05,Wunderground v.1.15,2013-05-12 03:55:00,